Kezdőlap
METAR-TAF:

METAR-TAF

Repülőterek :

Schenck Field

Clarinda, Iowa, Amerikai Egyesült Államok

földrajzi szélesség: 40-43N, földrajzi hosszúság: 095-02W, magasság: 303 m

Jelenlegi meteorológiai megfigyelések

A jelentés 11 perccel ezelõtt készült, 15:55 UTC
Keleti szél 5 kt
Hőmérséklet -7°C
Páratartalom 86%
Légköri nyomás 1019 hPa
Látótávolság: 9.7 km
Derült ég
Párásság

METAR: KICL 151555Z AUTO 09005KT 6SM BR CLR M07/M09 A3010 RMK AO2

Idő: 10:06 (16:06 UTC)


TAF: hiányzik

Meteorológiai megfigyelések és előrejelzések több, mint 4000 repülőtéren (METAR és TAF jelentéseket).

A térképen piros és sárga pontok jelzik az elérhető meteorológiai állomásokat.

Mozgassa az egeret a pont fölött, hogy megjelenjen az állomás neve.

Azután kattintson az időjárási megfigyelések és előrejelzések megtekintéséhez.

A térkép megváltoztatása: kattintson a fekete keresztel jelölt zöld gombra ráközelítéshez, a vonallal jelölt zöld gombra távolításhoz, vagy a zöld nyilakra a szomszédos térképek eléréséhez.


METAR-TAF: